Lowell, Idaho
Current Conditions -  °F | °C
As of 6:15 AM on Thursday 27 Nov 2014 (Local Time) from KGIC Reporting Station
Broken Clouds Broken Clouds  
Wind Chill: 55°   Ceiling: 7000
Heat Index: 55°   Visibility: 10mi
Dew Point: 33°   Wind: 24mph
Humidity: 45%   Direction: 210°SSW
Pressure: 30.01"   Gusts: 31mph
Location:  46.2989°N, 115.619°W
Report Text: KGIC 271415Z AUTO 21021G27KT 10SM BKN070 BKN120 13/01 A3001 RMK AO1 T01250008
Loading
Personal Weather Stations






























Interactive Weather Map New forecast layout! Learn more

10-Day Weather Forecast

Advertisements
Track Severe Weather on mobile